Time;durP1;ratioP1;P1;durP2;ratioP2;P2;SDS_P1;SDS_P2;PMS_P1;PMS_P2;Temp;Humidity;BMP_temperature;BMP_pressure;BME280_temperature;BME280_humidity;BME280_pressure;Samples;Min_cycle;Max_cycle;Signal;HPM_P1;HPM_P2
2022/05/23 00:01:41;;;;;;;0.90;0.70;;;18.50;99.90;;;;;;5013670;28;20500;-70
2022/05/23 00:04:07;;;;;;;0.80;0.60;;;18.40;99.90;;;;;;5012213;28;20483;-70
2022/05/23 00:06:33;;;;;;;1.77;1.03;;;18.40;99.90;;;;;;5013209;28;20198;-70
2022/05/23 00:08:58;;;;;;;0.80;0.60;;;18.30;99.90;;;;;;5013488;28;20195;-71
2022/05/23 00:11:24;;;;;;;0.90;0.70;;;18.30;99.90;;;;;;5013393;28;20196;-71
2022/05/23 00:13:50;;;;;;;0.80;0.70;;;18.20;99.90;;;;;;5013384;28;20173;-70
2022/05/23 00:16:22;;;;;;;0.80;0.60;;;18.20;99.90;;;;;;5013153;28;20195;-70
2022/05/23 00:18:49;;;;;;;1.63;0.70;;;18.10;99.90;;;;;;5012715;28;20548;-70
2022/05/23 00:21:16;;;;;;;1.17;0.70;;;18.00;99.90;;;;;;5013246;28;20909;-70
2022/05/23 00:23:42;;;;;;;0.80;0.67;;;18.00;99.90;;;;;;5013157;28;20407;-70
2022/05/23 00:26:10;;;;;;;0.90;0.70;;;18.00;99.90;;;;;;5012827;28;20402;-69
2022/05/23 00:28:37;;;;;;;0.80;0.60;;;17.90;99.90;;;;;;5011598;28;20173;-70
2022/05/23 00:31:02;;;;;;;1.00;0.90;;;17.90;99.90;;;;;;5011709;28;20498;-70
2022/05/23 00:36:12;;;;;;;2.33;2.20;;;17.80;99.90;;;;;;5012953;28;20621;-71
2022/05/23 00:38:38;;;;;;;1.73;1.03;;;17.80;99.90;;;;;;5012600;28;20497;-70
2022/05/23 00:43:59;;;;;;;1.00;0.90;;;17.80;99.90;;;;;;5012780;28;20175;-70
2022/05/23 00:46:25;;;;;;;0.80;0.50;;;17.80;99.90;;;;;;5012846;28;20417;-70
2022/05/23 00:48:52;;;;;;;0.80;0.70;;;17.90;99.90;;;;;;5012358;28;20923;-69
2022/05/23 00:51:18;;;;;;;1.20;0.90;;;17.80;99.90;;;;;;5011548;28;20177;-71
2022/05/23 00:53:51;;;;;;;1.10;0.60;;;17.90;99.90;;;;;;5012665;28;20414;-70
2022/05/23 00:56:19;;;;;;;1.50;1.03;;;17.90;99.90;;;;;;5012458;28;20443;-70
2022/05/23 00:58:55;;;;;;;0.80;0.60;;;17.90;99.90;;;;;;5027304;28;20469;-70
2022/05/23 01:01:27;;;;;;;1.10;1.00;;;18.00;99.90;;;;;;5011290;28;20407;-69
2022/05/23 01:03:53;;;;;;;1.47;0.93;;;18.00;99.90;;;;;;5011044;28;20422;-71
2022/05/23 01:06:18;;;;;;;0.90;0.70;;;18.00;99.90;;;;;;5012511;28;20928;-69
2022/05/23 01:08:46;;;;;;;0.90;0.70;;;18.00;99.90;;;;;;5011989;28;20403;-71
2022/05/23 01:11:12;;;;;;;0.80;0.60;;;18.00;99.90;;;;;;5012374;28;20168;-70
2022/05/23 01:13:38;;;;;;;0.90;0.70;;;18.00;99.90;;;;;;5012369;28;20526;-71
2022/05/23 01:16:04;;;;;;;2.50;0.70;;;18.10;99.90;;;;;;5011033;28;20430;-71
2022/05/23 01:18:31;;;;;;;0.80;0.60;;;18.10;99.90;;;;;;5010572;28;20435;-70
2022/05/23 01:20:58;;;;;;;1.00;0.90;;;18.10;99.90;;;;;;5012367;28;20415;-71
2022/05/23 01:23:47;;;;;;;0.80;0.73;;;18.10;99.90;;;;;;5012161;28;20395;-70
2022/05/23 01:26:12;;;;;;;1.03;0.83;;;18.10;99.90;;;;;;5012198;28;20415;-71
2022/05/23 01:28:40;;;;;;;1.97;0.67;;;18.10;99.90;;;;;;5011918;28;20471;-71
2022/05/23 01:31:08;;;;;;;1.53;0.80;;;18.00;99.90;;;;;;5027454;28;20177;-70
2022/05/23 01:33:34;;;;;;;0.90;0.70;;;18.10;99.90;;;;;;5012113;28;20442;-70
2022/05/23 01:35:59;;;;;;;0.97;0.87;;;18.00;99.90;;;;;;5012077;28;20837;-71
2022/05/23 01:38:26;;;;;;;0.80;0.70;;;18.10;99.90;;;;;;5012455;28;20168;-71
2022/05/23 01:40:55;;;;;;;1.00;0.83;;;18.10;99.90;;;;;;5014926;28;20431;-70
2022/05/23 01:43:20;;;;;;;1.03;0.80;;;18.10;99.90;;;;;;5016188;28;20807;-71
2022/05/23 01:45:46;;;;;;;2.53;1.67;;;18.10;99.90;;;;;;5016075;28;20406;-70
2022/05/23 01:48:12;;;;;;;1.00;0.80;;;18.10;99.90;;;;;;5015843;28;20637;-70
2022/05/23 01:50:38;;;;;;;0.90;0.80;;;18.10;99.90;;;;;;5015730;28;20704;-70
2022/05/23 01:53:03;;;;;;;0.93;0.70;;;18.10;99.90;;;;;;5015634;28;20172;-71
2022/05/23 01:55:29;;;;;;;1.37;0.90;;;18.10;99.90;;;;;;5015850;28;20172;-70
2022/05/23 01:57:55;;;;;;;0.83;0.60;;;18.10;99.90;;;;;;5015661;28;20196;-70
2022/05/23 02:03:05;;;;;;;1.27;0.90;;;18.10;99.90;;;;;;5015828;28;20218;-70
2022/05/23 02:05:33;;;;;;;0.90;0.70;;;18.10;99.90;;;;;;5014427;28;20411;-71
2022/05/23 02:07:59;;;;;;;0.90;0.80;;;18.10;99.90;;;;;;5015526;28;20537;-69
2022/05/23 02:10:24;;;;;;;1.40;1.30;;;18.10;99.90;;;;;;5015516;28;20548;-70
2022/05/23 02:12:50;;;;;;;0.80;0.57;;;18.10;99.90;;;;;;5015672;28;20570;-71
2022/05/23 02:15:17;;;;;;;1.00;0.80;;;18.10;99.90;;;;;;5015488;28;20160;-70
2022/05/23 02:17:42;;;;;;;1.27;0.90;;;18.10;99.90;;;;;;5015083;28;20204;-70
2022/05/23 02:20:10;;;;;;;1.33;1.00;;;18.10;99.90;;;;;;5015271;28;20420;-71
2022/05/23 02:22:37;;;;;;;1.10;0.80;;;18.10;99.90;;;;;;5015608;28;20220;-70
2022/05/23 02:25:04;;;;;;;0.80;0.80;;;18.10;99.90;;;;;;5015209;28;20470;-70
2022/05/23 02:27:30;;;;;;;0.90;0.80;;;18.10;99.90;;;;;;5014827;28;20502;-71
2022/05/23 02:29:56;;;;;;;1.00;0.70;;;18.10;99.90;;;;;;5013989;28;20534;-70
2022/05/23 02:32:22;;;;;;;0.80;0.60;;;18.10;99.90;;;;;;5015218;28;20923;-71
2022/05/23 02:34:48;;;;;;;1.00;0.70;;;18.10;99.90;;;;;;5014323;28;20438;-71
2022/05/23 02:37:13;;;;;;;0.80;0.50;;;18.10;99.90;;;;;;5014860;28;20196;-70
2022/05/23 02:39:39;;;;;;;1.17;0.80;;;18.10;99.90;;;;;;5015110;28;20262;-70
2022/05/23 02:42:06;;;;;;;0.80;0.50;;;18.10;99.90;;;;;;5013888;28;20239;-71
2022/05/23 02:44:31;;;;;;;1.10;0.70;;;18.10;99.90;;;;;;5014962;28;20200;-69
2022/05/23 02:46:57;;;;;;;0.80;0.60;;;18.10;99.90;;;;;;5014735;28;20439;-71
2022/05/23 02:49:22;;;;;;;0.90;0.77;;;18.00;99.90;;;;;;5014750;28;20644;-70
2022/05/23 02:51:48;;;;;;;0.90;0.60;;;18.10;99.90;;;;;;5015022;28;20172;-70
2022/05/23 02:54:13;;;;;;;1.60;0.80;;;18.00;99.90;;;;;;5014874;28;20176;-69
2022/05/23 02:56:39;;;;;;;0.80;0.50;;;18.00;99.90;;;;;;5014671;28;20192;-71
2022/05/23 02:59:05;;;;;;;2.13;0.90;;;18.10;99.90;;;;;;5014488;28;20243;-71
2022/05/23 03:01:31;;;;;;;0.90;0.70;;;18.00;99.90;;;;;;5014665;28;20172;-71
2022/05/23 03:03:57;;;;;;;0.80;0.70;;;18.00;99.90;;;;;;5014538;28;20829;-71
2022/05/23 03:06:22;;;;;;;1.10;0.90;;;18.00;99.90;;;;;;5014580;28;20627;-70
2022/05/23 03:08:48;;;;;;;1.77;1.63;;;18.00;99.90;;;;;;5013131;28;20187;-69
2022/05/23 03:11:13;;;;;;;1.23;0.90;;;18.00;99.90;;;;;;5014491;28;20183;-70
2022/05/23 03:13:39;;;;;;;0.90;0.70;;;18.00;99.90;;;;;;5014581;28;20172;-70
2022/05/23 03:16:10;;;;;;;2.13;1.27;;;18.00;99.90;;;;;;5014353;28;20187;-70
2022/05/23 03:18:35;;;;;;;1.30;0.80;;;18.00;99.90;;;;;;5013988;28;20188;-70
2022/05/23 03:21:05;;;;;;;1.43;1.10;;;18.00;99.90;;;;;;5014415;28;20770;-70
2022/05/23 03:29:02;;;;;;;1.00;0.90;;;18.00;99.90;;;;;;5013998;28;20421;-70
2022/05/23 03:31:28;;;;;;;0.90;0.80;;;17.90;99.90;;;;;;5012553;28;20618;-70
2022/05/23 03:33:54;;;;;;;1.10;0.80;;;17.90;99.90;;;;;;5013983;28;20959;-71
2022/05/23 03:36:21;;;;;;;0.80;0.60;;;17.90;99.90;;;;;;5014014;28;20556;-70
2022/05/23 03:38:46;;;;;;;1.00;0.90;;;17.90;99.90;;;;;;5013598;28;20510;-70
2022/05/23 03:41:12;;;;;;;0.80;0.60;;;17.90;99.90;;;;;;5012766;28;20984;-70
2022/05/23 03:43:38;;;;;;;1.30;1.03;;;17.90;99.90;;;;;;5013930;28;20191;-70
2022/05/23 03:46:09;;;;;;;1.90;1.47;;;17.90;99.90;;;;;;5013949;28;20172;-70
2022/05/23 03:48:35;;;;;;;1.33;1.20;;;17.90;99.90;;;;;;5013647;28;20722;-71
2022/05/23 03:51:01;;;;;;;0.80;0.60;;;17.90;99.90;;;;;;5012551;28;20462;-70
2022/05/23 03:53:28;;;;;;;1.10;0.90;;;17.90;99.90;;;;;;5012309;28;20407;-70
2022/05/23 03:55:53;;;;;;;1.10;1.00;;;17.90;99.90;;;;;;5012942;28;20764;-70
2022/05/23 03:58:19;;;;;;;0.80;0.60;;;17.90;99.90;;;;;;5013470;28;20498;-70
2022/05/23 04:00:49;;;;;;;1.10;1.00;;;17.90;99.90;;;;;;5013449;28;20188;-70
2022/05/23 04:03:18;;;;;;;1.37;1.27;;;17.80;99.90;;;;;;5011950;28;20169;-70
2022/05/23 04:05:43;;;;;;;1.10;1.00;;;17.80;99.90;;;;;;5013209;28;20407;-69
2022/05/23 04:08:10;;;;;;;1.10;1.00;;;17.80;99.90;;;;;;5013118;28;20449;-70
2022/05/23 04:10:36;;;;;;;1.00;0.87;;;17.80;99.90;;;;;;5013291;28;20218;-70
2022/05/23 04:13:02;;;;;;;0.87;0.63;;;17.80;99.90;;;;;;5013301;28;20494;-70
2022/05/23 04:15:29;;;;;;;0.80;0.50;;;17.90;99.90;;;;;;5013367;28;20184;-69
2022/05/23 04:17:55;;;;;;;1.67;0.80;;;17.90;99.90;;;;;;5013079;28;21018;-71
2022/05/23 04:20:21;;;;;;;0.97;0.70;;;17.90;99.90;;;;;;5013049;28;20522;-70
2022/05/23 04:22:47;;;;;;;0.80;0.60;;;17.90;99.90;;;;;;5013186;28;20599;-70
2022/05/23 04:25:13;;;;;;;0.97;0.87;;;18.00;99.90;;;;;;5011796;28;20415;-69
2022/05/23 04:27:38;;;;;;;0.80;0.60;;;18.10;99.90;;;;;;5012880;28;20175;-70
2022/05/23 04:30:07;;;;;;;1.00;0.90;;;18.20;99.90;;;;;;5012971;28;20318;-70
2022/05/23 04:35:18;;;;;;;0.97;0.87;;;18.30;99.90;;;;;;5012980;28;20399;-70
2022/05/23 04:37:48;;;;;;;1.10;1.00;;;18.40;99.90;;;;;;5012660;28;20529;-70
2022/05/23 04:40:16;;;;;;;0.90;0.80;;;18.40;99.90;;;;;;5012995;28;20506;-70
2022/05/23 04:42:41;;;;;;;1.13;1.03;;;18.50;99.90;;;;;;5012893;28;20407;-71
2022/05/23 04:45:09;;;;;;;1.00;0.90;;;18.50;99.90;;;;;;5012751;28;20395;-70
2022/05/23 04:50:19;;;;;;;0.90;0.70;;;18.50;99.90;;;;;;5012675;28;20430;-70
2022/05/23 04:52:45;;;;;;;1.50;1.10;;;18.50;99.90;;;;;;5012695;28;20403;-69
2022/05/23 04:55:11;;;;;;;0.90;0.80;;;18.50;99.90;;;;;;5012646;28;20251;-70
2022/05/23 04:57:37;;;;;;;0.80;0.60;;;18.50;99.90;;;;;;5012293;28;20937;-70
2022/05/23 05:00:08;;;;;;;1.63;1.43;;;18.50;99.90;;;;;;5012465;28;20188;-70
2022/05/23 05:02:37;;;;;;;1.20;1.00;;;18.40;99.90;;;;;;5012586;28;20157;-71
2022/05/23 05:05:03;;;;;;;2.50;1.03;;;18.40;99.90;;;;;;5012590;28;20434;-70
2022/05/23 05:07:28;;;;;;;0.90;0.70;;;18.40;99.90;;;;;;5012252;28;20411;-70
2022/05/23 05:09:54;;;;;;;1.20;0.97;;;18.40;99.90;;;;;;5012296;28;21088;-70
2022/05/23 05:12:20;;;;;;;1.00;0.90;;;18.40;99.90;;;;;;5012337;28;20198;-70
2022/05/23 05:14:46;;;;;;;1.13;1.03;;;18.50;99.90;;;;;;5010416;28;20223;-70
2022/05/23 05:17:11;;;;;;;1.00;0.80;;;18.40;99.90;;;;;;5010461;28;20455;-70
2022/05/23 05:19:37;;;;;;;1.27;1.17;;;18.50;99.90;;;;;;5012140;28;20657;-70
2022/05/23 05:22:03;;;;;;;0.90;0.70;;;18.40;99.90;;;;;;5011085;28;20179;-70
2022/05/23 05:24:32;;;;;;;0.90;0.70;;;18.40;99.90;;;;;;5010924;28;20172;-70
2022/05/23 05:26:58;;;;;;;0.80;0.60;;;18.40;99.90;;;;;;5011005;28;20414;-70
2022/05/23 05:29:24;;;;;;;0.90;0.60;;;18.40;99.90;;;;;;5010670;28;20513;-70
2022/05/23 05:32:03;;;;;;;0.90;0.73;;;18.50;99.90;;;;;;5012369;28;20498;-69
2022/05/23 05:34:35;;;;;;;0.80;0.60;;;18.50;99.90;;;;;;5012179;28;20606;-71
2022/05/23 05:37:06;;;;;;;1.10;1.00;;;18.50;99.90;;;;;;5012185;28;20447;-69
2022/05/23 05:39:35;;;;;;;1.27;0.90;;;18.60;99.90;;;;;;5012070;28;20408;-71
2022/05/23 05:42:11;;;;;;;1.13;0.90;;;18.60;99.90;;;;;;5012039;28;20399;-70
2022/05/23 05:44:41;;;;;;;0.90;0.80;;;18.70;99.90;;;;;;5012154;28;20395;-71
2022/05/23 05:47:11;;;;;;;1.23;1.13;;;18.80;99.90;;;;;;5010561;28;20464;-71
2022/05/23 05:49:41;;;;;;;0.90;0.70;;;18.80;99.90;;;;;;5011781;28;20936;-70
2022/05/23 05:52:10;;;;;;;2.10;2.00;;;18.90;99.90;;;;;;5011975;28;20908;-71
2022/05/23 05:54:39;;;;;;;1.77;1.03;;;19.00;99.90;;;;;;5010703;28;20415;-71
2022/05/23 05:57:06;;;;;;;1.20;1.10;;;19.00;99.90;;;;;;5011682;28;20744;-69
2022/05/23 05:59:32;;;;;;;1.63;1.17;;;19.10;99.90;;;;;;5011718;28;20434;-71
2022/05/23 06:01:57;;;;;;;0.80;0.60;;;19.20;99.90;;;;;;5011844;28;20395;-71
2022/05/23 06:04:22;;;;;;;1.47;0.97;;;19.40;99.90;;;;;;5011863;28;20168;-70
2022/05/23 06:12:16;;;;;;;1.60;1.20;;;19.60;99.90;;;;;;5012097;28;21038;-71
2022/05/23 06:14:43;;;;;;;2.90;1.40;;;19.70;99.90;;;;;;5011778;28;20494;-70
2022/05/23 06:17:10;;;;;;;0.90;0.80;;;19.80;99.90;;;;;;5011465;28;20291;-69
2022/05/23 06:19:45;;;;;;;1.23;1.00;;;19.90;99.90;;;;;;5011587;28;20426;-70
2022/05/23 06:22:12;;;;;;;1.87;1.00;;;20.00;99.90;;;;;;5011856;28;20402;-71
2022/05/23 06:24:37;;;;;;;1.00;0.80;;;20.20;99.90;;;;;;5012532;28;21010;-70
2022/05/23 06:27:06;;;;;;;1.63;1.07;;;20.30;99.90;;;;;;5015318;28;20442;-71
2022/05/23 06:29:31;;;;;;;2.07;1.80;;;20.50;99.90;;;;;;5015072;28;20191;-70
2022/05/23 06:31:57;;;;;;;1.20;1.00;;;20.70;99.90;;;;;;5015203;28;20900;-70
2022/05/23 06:34:23;;;;;;;1.00;0.90;;;20.90;99.90;;;;;;5015187;28;20203;-71
2022/05/23 06:36:48;;;;;;;1.23;1.00;;;21.00;99.90;;;;;;5015121;28;20192;-71
2022/05/23 06:39:14;;;;;;;0.90;0.80;;;21.00;99.90;;;;;;5014754;28;20202;-70
2022/05/23 06:41:39;;;;;;;2.20;1.03;;;21.10;99.90;;;;;;5015110;28;20156;-70
2022/05/23 06:44:05;;;;;;;0.80;0.70;;;21.10;99.90;;;;;;5014897;28;20223;-71
2022/05/23 06:46:31;;;;;;;1.00;0.83;;;21.10;99.90;;;;;;5014839;28;20718;-71
2022/05/23 06:48:56;;;;;;;1.20;0.87;;;21.10;99.90;;;;;;5014503;28;20199;-71
2022/05/23 06:51:22;;;;;;;1.30;1.20;;;21.10;99.90;;;;;;5013598;28;20588;-70
2022/05/23 06:53:47;;;;;;;1.73;0.90;;;21.10;99.90;;;;;;5014883;28;20168;-71
2022/05/23 06:56:13;;;;;;;0.90;0.80;;;21.10;99.90;;;;;;5014722;28;20217;-71
2022/05/23 06:58:39;;;;;;;1.10;1.00;;;21.10;99.90;;;;;;5014404;28;20191;-71
2022/05/23 07:01:05;;;;;;;0.90;0.80;;;21.10;99.90;;;;;;5013441;28;20180;-71
2022/05/23 07:03:31;;;;;;;1.80;0.97;;;21.10;99.90;;;;;;5014558;28;20951;-70
2022/05/23 07:14:08;;;;;;;1.53;1.27;;;21.30;99.90;;;;;;5014537;28;20402;-70
2022/05/23 07:16:34;;;;;;;1.83;1.20;;;21.40;99.90;;;;;;5014733;28;20538;-71
2022/05/23 07:19:02;;;;;;;1.00;0.90;;;21.60;99.90;;;;;;5013957;28;20207;-71
2022/05/23 07:21:28;;;;;;;1.00;0.87;;;21.70;99.90;;;;;;5014459;28;20962;-71
2022/05/23 07:23:55;;;;;;;1.10;1.00;;;21.90;99.90;;;;;;5014293;28;20407;-71
2022/05/23 07:26:20;;;;;;;1.53;1.20;;;22.10;99.90;;;;;;5014330;28;20164;-70
2022/05/23 07:28:47;;;;;;;1.33;1.23;;;22.30;99.90;;;;;;5013911;28;20901;-71
2022/05/23 07:31:13;;;;;;;0.90;0.70;;;22.50;99.90;;;;;;5012884;28;20225;-71
2022/05/23 07:33:40;;;;;;;1.43;1.17;;;22.70;99.90;;;;;;5014159;28;20904;-70
2022/05/23 07:36:07;;;;;;;0.90;0.80;;;23.00;99.90;;;;;;5013117;28;20927;-71
2022/05/23 07:38:33;;;;;;;1.00;0.90;;;23.20;99.90;;;;;;5013735;28;20419;-70
2022/05/23 07:41:00;;;;;;;1.00;0.80;;;23.50;99.90;;;;;;5012638;28;20418;-70
2022/05/23 07:43:25;;;;;;;1.10;1.00;;;23.60;99.90;;;;;;5012521;28;20951;-71
2022/05/23 07:45:52;;;;;;;1.20;1.00;;;23.80;99.90;;;;;;5013853;28;20399;-71
2022/05/23 07:48:19;;;;;;;0.93;0.83;;;23.90;99.90;;;;;;5013620;28;20168;-71
2022/05/23 07:50:45;;;;;;;1.73;1.00;;;24.00;99.90;;;;;;5013526;28;20439;-71
2022/05/23 08:01:24;;;;;;;10.90;1.27;;;24.30;99.90;;;;;;5013789;28;20410;-71
2022/05/23 08:03:51;;;;;;;0.93;0.80;;;24.30;99.90;;;;;;5013576;28;20764;-70
2022/05/23 08:06:17;;;;;;;2.47;1.30;;;24.30;99.90;;;;;;5013466;28;20294;-71
2022/05/23 08:08:43;;;;;;;1.30;1.00;;;24.40;99.90;;;;;;5013146;28;20406;-71
2022/05/23 08:11:08;;;;;;;1.60;0.80;;;24.40;99.90;;;;;;5013365;28;20482;-71
2022/05/23 08:13:38;;;;;;;1.13;0.87;;;24.40;99.90;;;;;;5013429;28;20172;-72
2022/05/23 08:16:05;;;;;;;1.63;1.10;;;24.50;99.90;;;;;;5013186;28;20176;-71
2022/05/23 08:18:31;;;;;;;1.37;0.80;;;24.60;99.90;;;;;;5012966;28;20466;-71
2022/05/23 08:20:57;;;;;;;1.37;1.07;;;24.60;99.90;;;;;;5013230;28;20913;-70
2022/05/23 08:23:23;;;;;;;1.47;1.10;;;24.70;99.90;;;;;;5013238;28;20569;-70
2022/05/23 08:25:48;;;;;;;1.10;1.00;;;24.80;99.90;;;;;;5013228;28;20467;-70
2022/05/23 08:28:14;;;;;;;1.10;0.93;;;25.30;99.90;;;;;;5012640;28;20176;-71
2022/05/23 08:30:40;;;;;;;1.00;0.90;;;25.60;99.90;;;;;;5012946;28;20200;-70
2022/05/23 08:33:06;;;;;;;1.20;1.10;;;25.80;99.90;;;;;;5013053;28;20590;-70
2022/05/23 08:35:31;;;;;;;1.00;0.90;;;25.90;99.90;;;;;;5013031;28;20403;-70
2022/05/23 08:37:58;;;;;;;2.27;1.10;;;26.00;99.70;;;;;;5012603;28;20497;-70
2022/05/23 08:40:49;;;;;;;1.40;1.30;;;26.10;99.70;;;;;;5012898;28;20250;-70
2022/05/23 08:43:26;;;;;;;1.43;1.00;;;26.40;99.10;;;;;;5012265;28;20495;-71
2022/05/23 08:45:56;;;;;;;1.50;1.30;;;26.90;98.30;;;;;;5012828;28;20399;-71
2022/05/23 08:48:47;;;;;;;3.63;1.63;;;27.50;97.00;;;;;;5012292;28;20443;-71
2022/05/23 08:51:17;;;;;;;1.20;1.10;;;27.90;95.20;;;;;;5012800;28;20404;-70
2022/05/23 08:53:51;;;;;;;1.57;1.40;;;27.90;91.90;;;;;;5012711;28;20408;-70
2022/05/23 08:56:20;;;;;;;1.23;1.13;;;27.80;90.70;;;;;;5011581;28;21231;-70
2022/05/23 08:58:52;;;;;;;1.63;1.53;;;27.80;90.80;;;;;;5012374;28;20449;-70
2022/05/23 09:01:25;;;;;;;1.10;1.00;;;27.80;90.50;;;;;;5011337;28;20419;-70
2022/05/23 09:04:01;;;;;;;1.50;1.20;;;27.80;90.50;;;;;;5012414;28;20434;-71
2022/05/23 09:06:29;;;;;;;1.30;1.20;;;27.70;90.00;;;;;;5012913;28;20775;-71
2022/05/23 09:08:58;;;;;;;1.00;0.90;;;27.50;88.60;;;;;;5012131;28;20797;-71
2022/05/23 09:11:42;;;;;;;1.17;0.80;;;27.40;88.40;;;;;;5012554;28;20411;-70
2022/05/23 09:14:10;;;;;;;1.10;1.00;;;27.30;88.90;;;;;;5012265;28;20402;-70
2022/05/23 09:16:58;;;;;;;1.00;0.83;;;27.40;88.90;;;;;;5012378;28;20960;-71
2022/05/23 09:19:37;;;;;;;1.37;0.83;;;27.70;88.90;;;;;;5011646;28;20439;-71
2022/05/23 09:22:14;;;;;;;1.10;1.00;;;28.90;87.80;;;;;;5012335;28;20430;-72
2022/05/23 09:24:47;;;;;;;1.57;1.27;;;31.30;82.50;;;;;;5012370;28;21154;-71
2022/05/23 09:27:21;;;;;;;1.33;1.10;;;33.90;71.60;;;;;;5011679;28;20790;-71
2022/05/23 09:29:52;;;;;;;1.00;0.90;;;36.40;61.20;;;;;;5011193;28;20414;-71
2022/05/23 09:32:21;;;;;;;1.60;0.93;;;37.70;54.20;;;;;;5012172;28;20433;-72
2022/05/23 09:34:58;;;;;;;1.20;1.10;;;38.00;50.50;;;;;;5011437;28;20403;-72
2022/05/23 09:37:48;;;;;;;1.20;1.10;;;37.80;47.20;;;;;;5011645;28;20493;-72
2022/05/23 09:40:26;;;;;;;1.60;1.40;;;37.60;46.30;;;;;;5011490;28;20789;-71
2022/05/23 09:48:23;;;;;;;1.37;1.27;;;36.60;45.10;;;;;;5011224;28;20461;-71
2022/05/23 09:51:05;;;;;;;1.53;1.40;;;36.00;45.20;;;;;;5011357;28;20923;-71
2022/05/23 09:53:37;;;;;;;1.40;1.30;;;35.30;45.90;;;;;;5011484;28;20418;-71
2022/05/23 09:56:30;;;;;;;2.37;1.67;;;34.70;46.70;;;;;;5010066;28;20430;-72
2022/05/23 09:59:00;;;;;;;1.40;1.30;;;33.90;47.00;;;;;;5009792;28;20522;-71
2022/05/23 10:01:32;;;;;;;1.20;1.10;;;33.30;47.70;;;;;;5013029;28;20415;-71
2022/05/23 10:03:58;;;;;;;1.13;0.93;;;32.70;48.30;;;;;;5014922;28;20414;-70
2022/05/23 10:06:42;;;;;;;1.00;0.90;;;32.10;49.10;;;;;;5015223;28;20414;-71
2022/05/23 10:09:20;;;;;;;1.10;0.83;;;31.60;50.30;;;;;;5015026;28;20423;-70
2022/05/23 10:11:56;;;;;;;2.17;1.77;;;31.20;51.30;;;;;;5013630;28;20994;-71
2022/05/23 10:14:23;;;;;;;1.10;1.00;;;30.90;52.40;;;;;;5014779;28;20394;-70
2022/05/23 10:16:54;;;;;;;1.20;1.10;;;30.70;53.00;;;;;;5014832;28;20953;-70
2022/05/23 10:19:39;;;;;;;1.13;1.03;;;30.50;53.30;;;;;;5014955;28;20773;-70
2022/05/23 10:22:15;;;;;;;1.13;1.03;;;30.70;54.80;;;;;;5015087;28;20395;-71
2022/05/23 10:24:59;;;;;;;1.20;1.10;;;31.50;55.50;;;;;;5014985;28;21034;-71
2022/05/23 10:27:46;;;;;;;1.30;1.00;;;33.00;54.00;;;;;;5015049;28;20407;-72
2022/05/23 10:30:15;;;;;;;1.37;1.27;;;33.40;52.40;;;;;;5014884;28;20463;-71
2022/05/23 10:32:42;;;;;;;1.10;0.93;;;34.20;51.60;;;;;;5014742;28;20502;-72
2022/05/23 10:35:28;;;;;;;1.17;1.07;;;35.60;50.90;;;;;;5014762;28;20407;-71
2022/05/23 10:42:07;;;;;;;1.40;1.30;;;37.50;49.80;;;;;;5014225;28;20542;-71
2022/05/23 10:43:27;;;;;;;1.10;1.00;;;40.00;45.10;;;;;;5014925;28;20777;-72
2022/05/23 10:45:59;;;;;;;1.30;1.20;;;40.80;43.30;;;;;;5014717;28;20511;-72
2022/05/23 10:48:55;;;;;;;1.50;1.40;;;41.30;41.70;;;;;;5014523;28;20408;-72
2022/05/23 10:51:33;;;;;;;1.40;1.30;;;41.80;40.50;;;;;;5014585;28;20396;-72
2022/05/23 10:54:34;;;;;;;1.83;1.73;;;41.80;39.60;;;;;;5014419;28;20403;-72
2022/05/23 10:57:31;;;;;;;1.23;1.13;;;41.40;39.10;;;;;;5014317;28;20452;-72
2022/05/23 11:00:16;;;;;;;1.37;1.27;;;40.90;39.00;;;;;;4989740;28;20539;-71
2022/05/23 11:03:06;;;;;;;3.10;1.30;;;40.40;39.70;;;;;;5029710;28;20407;-72
2022/05/23 11:05:38;;;;;;;2.50;1.60;;;39.90;39.80;;;;;;5014450;28;20406;-71
2022/05/23 11:08:04;;;;;;;1.50;1.10;;;39.30;40.50;;;;;;5014062;28;20407;-71
2022/05/23 11:10:53;;;;;;;1.83;1.73;;;38.80;40.70;;;;;;5013934;28;20469;-71
2022/05/23 11:13:29;;;;;;;2.30;1.90;;;38.10;41.00;;;;;;5012446;28;20455;-71
2022/05/23 11:16:03;;;;;;;4.97;2.43;;;37.40;41.90;;;;;;5014176;28;20403;-71
2022/05/23 11:18:35;;;;;;;1.43;1.33;;;36.70;43.00;;;;;;5013399;28;20457;-71
2022/05/23 11:21:07;;;;;;;1.30;1.20;;;36.00;43.80;;;;;;5014190;28;20987;-71
2022/05/23 11:24:07;;;;;;;1.20;1.10;;;35.30;44.70;;;;;;5012868;28;20442;-71
2022/05/23 11:33:41;;;;;;;1.07;0.97;;;34.50;45.90;;;;;;4982197;28;20878;-70
2022/05/23 11:35:23;;;;;;;1.30;1.20;;;33.80;50.10;;;;;;5013517;28;20410;-72
2022/05/23 11:37:49;;;;;;;1.27;1.17;;;34.30;50.30;;;;;;5013405;28;20957;-72
2022/05/23 11:40:30;;;;;;;1.87;1.40;;;35.10;49.90;;;;;;5013538;28;20453;-71
2022/05/23 11:43:01;;;;;;;1.17;1.07;;;36.30;49.30;;;;;;5013728;28;20762;-71
2022/05/23 11:48:39;;;;;;;1.60;1.50;;;37.80;47.40;;;;;;5013730;28;20482;-72
2022/05/23 11:51:24;;;;;;;1.47;1.37;;;38.00;46.20;;;;;;5013738;28;20493;-72
2022/05/23 11:54:09;;;;;;;1.50;1.17;;;37.60;45.50;;;;;;5013283;28;20505;-72
2022/05/23 11:56:37;;;;;;;1.47;1.37;;;36.90;45.90;;;;;;5013155;28;20411;-72
2022/05/23 11:59:06;;;;;;;1.60;1.50;;;36.20;46.90;;;;;;5012942;28;20423;-71
2022/05/23 12:01:32;;;;;;;2.00;1.90;;;35.70;47.90;;;;;;5011097;28;20925;-71
2022/05/23 12:04:08;;;;;;;1.57;1.47;;;35.20;48.40;;;;;;5013184;28;20395;-72
2022/05/23 12:06:38;;;;;;;1.23;1.13;;;34.70;48.90;;;;;;5013106;28;20465;-71
2022/05/23 12:09:22;;;;;;;1.33;1.23;;;34.30;49.30;;;;;;5012977;28;20430;-72
2022/05/23 12:12:12;;;;;;;1.40;1.30;;;33.90;49.80;;;;;;5012887;28;20411;-70
2022/05/23 12:14:37;;;;;;;1.60;1.40;;;33.80;51.20;;;;;;5012662;28;20951;-71
2022/05/23 12:17:10;;;;;;;1.80;1.67;;;33.60;51.50;;;;;;5012527;28;20455;-71
2022/05/23 12:19:39;;;;;;;1.30;0.97;;;33.40;51.50;;;;;;5012609;28;20187;-72
2022/05/23 12:22:15;;;;;;;1.70;1.53;;;33.00;51.80;;;;;;5011215;28;20538;-72
2022/05/23 12:25:10;;;;;;;3.80;1.57;;;32.60;52.60;;;;;;5012836;28;20426;-71
2022/05/23 12:27:39;;;;;;;1.47;1.37;;;32.10;53.60;;;;;;5012655;28;20411;-71
2022/05/23 12:30:35;;;;;;;3.17;1.63;;;31.70;54.70;;;;;;5012532;28;20498;-72
2022/05/23 12:33:01;;;;;;;1.53;1.43;;;31.20;55.70;;;;;;4999345;28;20423;-71
2022/05/23 12:35:44;;;;;;;1.70;1.60;;;30.80;56.00;;;;;;5012102;28;20407;-71
2022/05/23 12:38:18;;;;;;;1.43;1.33;;;30.40;56.70;;;;;;5012102;28;20843;-71
2022/05/23 12:40:58;;;;;;;1.70;1.30;;;29.90;57.40;;;;;;5012608;28;20427;-71
2022/05/23 12:44:01;;;;;;;1.90;1.03;;;29.60;58.60;;;;;;5011549;28;20411;-70
2022/05/23 12:46:45;;;;;;;2.03;1.50;;;29.20;59.70;;;;;;5011582;28;20472;-71
2022/05/23 12:49:22;;;;;;;1.53;1.43;;;28.80;61.10;;;;;;5012291;28;20415;-70
2022/05/23 12:52:10;;;;;;;1.33;1.20;;;28.50;63.00;;;;;;5012381;28;20391;-70
2022/05/23 12:54:54;;;;;;;1.50;1.30;;;28.20;66.50;;;;;;5010991;28;20928;-71
2022/05/23 12:57:22;;;;;;;1.43;1.10;;;28.00;69.60;;;;;;5012041;28;20455;-71
2022/05/23 12:59:53;;;;;;;1.20;1.00;;;27.70;73.50;;;;;;5010444;28;20521;-70
2022/05/23 13:02:37;;;;;;;3.00;2.03;;;27.50;76.80;;;;;;5012284;28;20829;-71
2022/05/23 13:05:17;;;;;;;1.40;1.30;;;27.30;80.30;;;;;;5012250;28;20395;-71
2022/05/23 13:08:09;;;;;;;1.50;1.23;;;27.00;85.10;;;;;;5012341;28;20471;-70
2022/05/23 13:10:40;;;;;;;1.30;0.80;;;26.70;90.70;;;;;;5012228;28;20418;-70
2022/05/23 13:13:20;;;;;;;0.90;0.70;;;26.50;92.90;;;;;;5011989;28;20445;-70
2022/05/23 13:15:46;;;;;;;1.07;0.83;;;26.30;96.50;;;;;;5012020;28;20518;-70
2022/05/23 13:23:46;;;;;;;1.00;0.90;;;25.70;99.90;;;;;;5012291;28;20402;-71
2022/05/23 13:26:13;;;;;;;2.90;0.80;;;25.50;99.90;;;;;;5012111;28;20407;-71
2022/05/23 13:28:44;;;;;;;2.27;1.50;;;25.30;99.90;;;;;;5011672;28;20883;-71
2022/05/23 13:31:33;;;;;;;1.40;1.20;;;25.10;99.90;;;;;;5011983;28;20407;-71
2022/05/23 13:33:59;;;;;;;1.33;1.10;;;24.80;99.90;;;;;;5011056;28;20413;-71
2022/05/23 13:36:44;;;;;;;1.10;1.00;;;24.60;99.90;;;;;;5011533;28;20395;-71
2022/05/23 13:39:14;;;;;;;1.73;1.10;;;24.50;99.90;;;;;;5011262;28;20500;-71
2022/05/23 13:41:40;;;;;;;1.03;0.93;;;24.40;99.90;;;;;;5010538;28;20471;-70
2022/05/23 13:44:06;;;;;;;1.00;0.90;;;24.40;99.90;;;;;;5011813;28;20498;-70
2022/05/23 13:46:42;;;;;;;2.43;2.23;;;24.30;99.90;;;;;;5010479;28;20506;-70
2022/05/23 13:49:17;;;;;;;1.43;0.97;;;24.30;99.90;;;;;;5011502;28;20251;-70
2022/05/23 13:51:53;;;;;;;1.40;1.17;;;24.30;99.90;;;;;;5011772;28;20414;-71
2022/05/23 13:54:25;;;;;;;1.17;0.93;;;24.50;99.90;;;;;;5011467;28;20433;-70
2022/05/23 13:57:22;;;;;;;2.30;1.77;;;24.90;99.90;;;;;;5011362;28;21123;-71
2022/05/23 13:59:57;;;;;;;1.50;1.23;;;25.40;99.90;;;;;;4997866;28;20442;-71
2022/05/23 14:02:28;;;;;;;1.23;0.90;;;26.00;99.90;;;;;;5011694;28;20423;-71
2022/05/23 14:04:54;;;;;;;2.83;1.40;;;26.50;99.90;;;;;;5011649;28;20506;-71
2022/05/23 14:07:25;;;;;;;1.20;1.00;;;26.80;99.90;;;;;;5010302;28;20784;-70
2022/05/23 14:09:55;;;;;;;1.10;1.00;;;27.10;99.90;;;;;;5026676;28;20466;-72